Accueil
METAR-TAF:

METAR-TAF

Aéroports :

Morrisville-Stowe State Airport

Morrisville, Vermont, États-Unis

latitude: 44-32-10N, longitude: 072-36-58W, altitude: 223 m

Observation

Le bulletin a été fait il y a 11 minutes, à 03:54 UTC
Vent calme
Température -5°C
Humidité 86%
Pression 1015 hPa
Visibilité: 2.8 km
Quelques nuages à une hauteur de 600 ft
Nuages fragmentés à une hauteur de 1400 ft
Ciel couvert à une hauteur de 3500 ft
neige faible, brume

METAR: KMVL 120354Z AUTO 00000KT 1 3/4SM -SN BR FEW006 BKN014 OVC035 M05/M07 A2997 RMK AO2 SLP162 P0000 T10501067

Heure: 23:05 (04:05 UTC)


TAF: absent

Observations et prévisions météorologiques de plus de 4000 aéroports (messages METAR et TAF).

Les stations disponibles sont représentées par des disques jaunes et rouges sur la carte.

Passer la souris dessus pour voir le nom de la station.

Cliquer dessus pour voir les observations et prévisions météorologiques.

Pour changer de carte: cliquez sur les boutons verts avec une croix noire pour zoomer, sur le bouton vert avec un tiret pour effectuer un zoom arrière, ou sur les flèches vertes pour les cartes adjacentes.


METAR-TAF: